CheckWX is a tool to help pilots better visualize weather data.  It is not intended as a substitute for an official pre-flight weather briefing.

17:55:48 UTC

MDJB TAF
La Isabela International Airport
La Isabela, Dominican Republic
TAF MDJB 241600Z 2418/2518 06010KT 9999 SCT020 BECMG 2500/2502 00000KT

Mar-24@
18:00 UTC

Mar-24 @ 18:00 UTC

Mar-25@
00:00 UTC

Mar-25 @ 00:00 UTC

TAF MDJB 241600Z 2418/2518 06010KT 9999 SCT020
Wind
  • 060° at 10 KTS
Cloud Levels
  • Scattered at 2,000' AGL

Mar-25@
00:00 UTC

Mar-25 @ 00:00 UTC

Mar-25@
18:00 UTC

Mar-25 @ 18:00 UTC

BECMG 2500/2502 00000KT

Becoming

Becoming Conditions expected by Mon, Mar 25, 2019 @ 02:00 UTC

Cloud Levels
  • Scattered at 2,000' AGL